KHTS/HTS METAR and TAF weather

Enter ICAO airport designator
Station Type Date Time Source
KHTS METAR 2020/07/03 12:51 UTC NOAA

KHTS 031251Z 00000KT 10SM CLR 24/19 A3003 RMK AO2 SLP161 T02440194


Station Type Date Time Source
KHTS Decoded METAR 2020/07/03 12:51 UTC NOAA

TRI-STATE AIRPORT, WV, United States (KHTS) 38-22N 082-33W 254M
Jul 03, 2020 - 08:51 AM EDT / 2020.07.03 1251 UTC
Wind: Calm:0
Visibility: 10 mile(s):0
Sky conditions: clear
Temperature: 75.9 F (24.4 C)
Dew Point: 66.9 F (19.4 C)
Relative Humidity: 73%
Pressure (altimeter): 30.03 in. Hg (1016 hPa)
ob: KHTS 031251Z 00000KT 10SM CLR 24/19 A3003 RMK AO2 SLP161 T02440194
cycle: 13

Station Type Date Time Source
KHTS TAF 2020/07/03 12:39 UTC NOAA

TAF KHTS 031136Z 0312/0412 36005KT P6SM FEW045 FEW250

Example: see airport list